Startpagina
METAR-TAF:

METAR-TAF

Vliegvelden :

Pago Pago, Kleine afgelegen eilanden van de Verenigde Staten

breedte: 14-20S, lengte: 170-43W, hoogte: 3 m

Actueel weer

Dit bericht is 57 minuten geleden gemaakt, om 01:50 UTC
Wind 9 kt uit het oostzuidoosten
Temperatuur 29°C
Vochtigheid 89%
Druk 1010 hPa
Zicht: 19.3 km
Verspreide wolken op 2000 ft
Verspreide wolken op 9500 ft

METAR: NSTU 250150Z 11009KT 12SM SCT020 SCT095 29/27 A2982 RMK SLP098 T02900267

Tijdstip: 15:47 (02:47 UTC)

Verwachting

Dit bericht is 3 uur en het 8 minuten geleden gemaakt, om 23:39 UTC
Verwachting geldig van 25 om 00 UTC tot 25 om 24 UTC
Wind 12 kt uit het oostzuidoosten
Zicht: 10 km
Weinig wolken op 2000 ft
Gebroken wolken op 4000 ft
Geheel bewolkt op 10000 ft
buien in de omgeving

TAF: NSTU 242339Z 2500/2524 12012KT P6SM VCSH FEW020 BKN040 OVC100

Waarnemingen en weersverwachtingen van meer dan 4000 vliegvelden (METAR en TAF).

De beschikbare stations zijn de gele en rode punten op de kaart.

Ga met uw muis naar het station om de naam te zien.

Klik dan om waarnemingen en weersverwachtingen te zien.

kaart wijzigen: klik op de groene knoppen met een zwart kruis om in te zoomen, op de groene knop met een streepje om uit te zoomen of op de groene pijlen voor aangrenzende kaarten.


METAR-TAF: